Huvudsida
METAR-TAF:

METAR-TAF

Flygplatser :

Førde flygplats. Bringeland

Førde, Norge

latitud: 61-27N, longitud: 005-52E, höjd: 150 m

Aktuellt väderrapport

Denna rapport gjordes för 19 timmar och 58 minuter sedan, klockan 13:50 UTC
Vind 8 kt från nordväst
Temperatur 22°C
Fuktighet 38%
Tryck 1030 hPa
Sikt 10 km eller mer
Inga moln under 1 500 m eller inga cumulonimbus

METAR: ENBL 261350Z 31008KT CAVOK 22/07 Q1030

Tid: 11:48 (09:48 UTC)


TAF: saknas

Aktuella väderrapporter och prognoser från 4000 flygplatser (METAR- och TAF-rapporter).

De tillgängliga stationerna syns som gula och röda prickar på kartan.

För musen över prickarna för att se namnen på stationerna.

Klicka sedan för att få väderrapporter och prognoser.

För att ändra kartan: Klicka på de gröna knapparna med ett svart kors på för att zooma in; den gröna knappen med ett streck på för att zooma ut; eller på de gröna pilarna för angränsande kartor.


METAR-TAF: